Time;durP1;ratioP1;P1;durP2;ratioP2;P2;SDS_P1;SDS_P2;PMS_P1;PMS_P2;Temp;Humidity;BMP_temperature;BMP_pressure;BME280_temperature;BME280_humidity;BME280_pressure;Samples;Min_cycle;Max_cycle;Signal;HPM_P1;HPM_P2
2021/06/18 00:02:17;;;;;;;11.75;10.55;;;;;;;;;;6305609;28;20047;-83
2021/06/18 00:05:20;;;;;;;11.18;9.95;;;;;;;;;;6291440;28;20048;-83
2021/06/18 00:08:21;;;;;;;12.95;11.65;;;;;;;;;;6289487;28;20036;-84
2021/06/18 00:11:23;;;;;;;11.75;10.60;;;;;;;;;;6291366;28;20632;-82
2021/06/18 00:14:25;;;;;;;11.90;10.80;;;;;;;;;;6293627;28;20512;-83
2021/06/18 00:17:27;;;;;;;11.82;10.55;;;;;;;;;;6282811;28;20051;-83
2021/06/18 00:20:29;;;;;;;12.07;10.88;;;;;;;;;;6305328;28;20044;-83
2021/06/18 00:23:31;;;;;;;12.18;10.32;;;;;;;;;;6289802;28;20056;-83
2021/06/18 00:26:32;;;;;;;10.85;9.85;;;;;;;;;;6291123;28;20047;-83
2021/06/18 00:29:34;;;;;;;12.68;10.80;;;;;;;;;;6290859;28;20037;-83
2021/06/18 00:32:35;;;;;;;12.15;10.88;;;;;;;;;;6290657;28;20090;-83
2021/06/18 00:35:37;;;;;;;12.38;11.07;;;;;;;;;;6290189;28;20520;-83
2021/06/18 00:38:39;;;;;;;13.25;11.13;;;;;;;;;;6305716;28;20405;-83
2021/06/18 00:41:40;;;;;;;13.18;11.77;;;;;;;;;;6264095;28;20045;-84
2021/06/18 00:44:42;;;;;;;12.38;11.15;;;;;;;;;;6287295;28;20044;-83
2021/06/18 00:47:56;;;;;;;14.07;11.02;;;;;;;;;;6291141;28;20194;-83
2021/06/18 00:50:58;;;;;;;13.40;11.98;;;;;;;;;;6289674;28;20403;-83
2021/06/18 00:54:00;;;;;;;12.43;11.23;;;;;;;;;;6290829;28;20041;-83
2021/06/18 00:57:02;;;;;;;12.73;11.43;;;;;;;;;;6288917;28;20186;-83
2021/06/18 01:00:06;;;;;;;13.23;11.50;;;;;;;;;;6305736;28;20669;-83
2021/06/18 01:03:08;;;;;;;12.90;11.55;;;;;;;;;;6306888;28;20051;-83
2021/06/18 01:06:14;;;;;;;12.55;11.35;;;;;;;;;;6295442;28;20102;-83
2021/06/18 01:09:17;;;;;;;13.10;11.75;;;;;;;;;;6293682;28;20173;-83
2021/06/18 01:12:22;;;;;;;13.95;11.63;;;;;;;;;;6305215;28;20052;-83
2021/06/18 01:15:47;;;;;;;13.30;12.00;;;;;;;;;;6311758;28;20044;-83
2021/06/18 01:19:00;;;;;;;12.98;11.73;;;;;;;;;;6307071;28;20470;-83
2021/06/18 01:22:05;;;;;;;12.82;11.52;;;;;;;;;;6295338;28;20044;-83
2021/06/18 01:25:21;;;;;;;13.68;12.27;;;;;;;;;;6293522;28;20498;-83
2021/06/18 01:28:44;;;;;;;13.68;11.65;;;;;;;;;;6293240;28;20493;-83
2021/06/18 01:31:49;;;;;;;13.30;11.90;;;;;;;;;;6292443;28;20465;-83
2021/06/18 01:34:53;;;;;;;12.60;11.10;;;;;;;;;;6309859;28;20145;-83
2021/06/18 01:37:56;;;;;;;13.10;11.70;;;;;;;;;;6309558;28;20043;-83
2021/06/18 01:41:01;;;;;;;12.82;11.52;;;;;;;;;;6292750;28;20049;-82
2021/06/18 01:44:04;;;;;;;12.52;11.32;;;;;;;;;;6293041;28;20041;-83
2021/06/18 01:47:08;;;;;;;13.35;11.95;;;;;;;;;;6293022;28;20553;-82
2021/06/18 01:50:14;;;;;;;12.65;11.35;;;;;;;;;;6293996;28;20106;-81
2021/06/18 01:53:19;;;;;;;14.82;12.18;;;;;;;;;;6251524;28;20045;-83
2021/06/18 01:56:22;;;;;;;13.45;11.23;;;;;;;;;;6292912;28;20045;-82
2021/06/18 01:59:25;;;;;;;;;;;;;;;;;;6293337;28;20041;-82
2021/06/18 02:02:28;;;;;;;11.55;10.30;;;;;;;;;;6285660;28;19927;-83
2021/06/18 02:05:33;;;;;;;13.55;12.20;;;;;;;;;;6309366;28;20040;-83
2021/06/18 02:08:35;;;;;;;13.77;12.27;;;;;;;;;;6292074;28;20507;-82
2021/06/18 02:11:38;;;;;;;13.53;12.13;;;;;;;;;;6311406;28;20039;-82
2021/06/18 02:14:40;;;;;;;12.38;11.10;;;;;;;;;;6319004;28;20462;-80
2021/06/18 02:17:45;;;;;;;12.93;11.63;;;;;;;;;;6302458;28;20052;-81
2021/06/18 02:20:47;;;;;;;15.18;12.45;;;;;;;;;;6297927;28;20041;-81
2021/06/18 02:23:50;;;;;;;13.07;11.48;;;;;;;;;;6294403;28;20064;-82
2021/06/18 02:26:53;;;;;;;14.15;11.82;;;;;;;;;;6293640;28;20056;-82
2021/06/18 02:29:55;;;;;;;15.00;13.40;;;;;;;;;;6276280;28;20051;-83
2021/06/18 02:32:59;;;;;;;16.00;13.13;;;;;;;;;;6293781;28;20181;-83
2021/06/18 02:36:01;;;;;;;16.30;13.45;;;;;;;;;;6276352;28;20051;-84
2021/06/18 02:39:05;;;;;;;14.35;12.57;;;;;;;;;;6276334;28;20490;-84
2021/06/18 02:42:07;;;;;;;13.98;12.48;;;;;;;;;;6276270;28;20047;-83
2021/06/18 02:45:09;;;;;;;13.90;12.25;;;;;;;;;;6276970;28;20092;-82
2021/06/18 02:48:27;;;;;;;16.33;12.73;;;;;;;;;;6292617;28;20044;-83
2021/06/18 02:51:59;;;;;;;13.35;11.32;;;;;;;;;;6251251;28;20399;-83
2021/06/18 02:55:14;;;;;;;13.23;11.93;;;;;;;;;;6270213;28;20052;-83
2021/06/18 02:58:26;;;;;;;12.95;11.63;;;;;;;;;;6292907;28;20076;-83
2021/06/18 03:01:32;;;;;;;13.23;11.85;;;;;;;;;;6276424;28;20129;-83
2021/06/18 03:04:38;;;;;;;13.38;11.98;;;;;;;;;;6293481;28;20048;-83
2021/06/18 03:07:45;;;;;;;13.50;11.30;;;;;;;;;;6275626;28;20047;-82
2021/06/18 03:10:50;;;;;;;14.07;12.60;;;;;;;;;;6273376;28;20063;-82
2021/06/18 03:13:54;;;;;;;14.48;12.23;;;;;;;;;;6275074;28;20044;-83
2021/06/18 03:17:01;;;;;;;14.65;12.55;;;;;;;;;;6275395;28;20267;-83
2021/06/18 03:20:08;;;;;;;13.70;12.30;;;;;;;;;;6266367;28;20412;-82
2021/06/18 03:23:15;;;;;;;17.65;13.52;;;;;;;;;;6274377;28;20037;-81
2021/06/18 03:26:17;;;;;;;14.05;12.57;;;;;;;;;;6277802;28;20052;-81
2021/06/18 03:29:19;;;;;;;14.80;13.30;;;;;;;;;;6267146;28;20047;-83
2021/06/18 03:32:20;;;;;;;14.68;13.18;;;;;;;;;;6230999;28;20996;-82
2021/06/18 03:35:23;;;;;;;16.45;14.48;;;;;;;;;;6268628;28;20134;-83
2021/06/18 03:38:25;;;;;;;14.23;12.63;;;;;;;;;;6289719;28;20040;-83
2021/06/18 03:41:27;;;;;;;14.13;12.67;;;;;;;;;;6271593;28;20049;-81
2021/06/18 03:44:29;;;;;;;15.63;13.23;;;;;;;;;;6278417;28;20052;-83
2021/06/18 03:47:32;;;;;;;15.73;13.40;;;;;;;;;;6255161;28;20043;-82
2021/06/18 03:50:34;;;;;;;13.02;11.63;;;;;;;;;;6272484;28;20047;-82
2021/06/18 03:53:37;;;;;;;14.15;12.68;;;;;;;;;;6289623;28;20138;-83
2021/06/18 03:56:42;;;;;;;14.65;12.40;;;;;;;;;;6243001;28;20043;-83
2021/06/18 03:59:45;;;;;;;17.75;14.50;;;;;;;;;;6276709;28;20056;-83
2021/06/18 04:02:49;;;;;;;15.20;13.63;;;;;;;;;;6291360;28;20704;-84
2021/06/18 04:05:51;;;;;;;14.43;12.93;;;;;;;;;;6289572;28;20051;-83
2021/06/18 04:08:54;;;;;;;14.45;12.73;;;;;;;;;;6241669;28;20041;-82
2021/06/18 04:11:56;;;;;;;14.90;13.27;;;;;;;;;;6268903;28;20080;-82
2021/06/18 04:15:03;;;;;;;15.70;13.75;;;;;;;;;;6271094;28;20073;-83
2021/06/18 04:18:05;;;;;;;15.23;12.55;;;;;;;;;;6287238;28;20076;-83
2021/06/18 04:21:10;;;;;;;13.88;12.10;;;;;;;;;;6288440;28;20044;-83
2021/06/18 04:24:13;;;;;;;17.02;14.65;;;;;;;;;;6271482;28;20041;-84
2021/06/18 04:27:15;;;;;;;18.08;15.65;;;;;;;;;;6293748;28;20162;-83
2021/06/18 04:30:17;;;;;;;18.45;15.25;;;;;;;;;;6316359;28;20039;-82
2021/06/18 04:33:19;;;;;;;16.05;14.35;;;;;;;;;;6314872;28;20318;-82
2021/06/18 04:36:21;;;;;;;14.95;12.85;;;;;;;;;;6295937;28;20047;-84
2021/06/18 04:39:22;;;;;;;15.10;12.95;;;;;;;;;;6293729;28;20300;-83
2021/06/18 04:42:24;;;;;;;15.30;13.50;;;;;;;;;;6294208;28;20127;-83
2021/06/18 04:45:26;;;;;;;15.70;14.07;;;;;;;;;;6277066;28;20175;-83
2021/06/18 04:48:28;;;;;;;14.38;12.43;;;;;;;;;;6294386;28;20059;-83
2021/06/18 04:51:30;;;;;;;15.88;14.10;;;;;;;;;;6295004;28;20043;-83
2021/06/18 04:54:32;;;;;;;14.15;12.75;;;;;;;;;;6279253;28;20047;-83
2021/06/18 04:57:33;;;;;;;14.55;12.98;;;;;;;;;;6280405;28;20048;-83
2021/06/18 05:00:35;;;;;;;16.60;14.80;;;;;;;;;;6296943;28;20107;-83
2021/06/18 05:03:37;;;;;;;16.92;13.68;;;;;;;;;;6279041;28;20127;-82
2021/06/18 05:06:39;;;;;;;15.73;14.13;;;;;;;;;;6279568;28;20060;-83
2021/06/18 05:09:40;;;;;;;16.93;15.23;;;;;;;;;;6296648;28;20104;-83
2021/06/18 05:12:42;;;;;;;16.10;14.45;;;;;;;;;;6278936;28;20100;-83
2021/06/18 05:15:44;;;;;;;18.38;14.88;;;;;;;;;;6296550;28;20044;-83
2021/06/18 05:18:45;;;;;;;16.23;14.52;;;;;;;;;;6297220;28;20098;-84
2021/06/18 05:21:47;;;;;;;15.18;13.50;;;;;;;;;;6296596;28;20037;-83
2021/06/18 05:24:48;;;;;;;16.98;14.80;;;;;;;;;;6263876;28;20645;-84
2021/06/18 05:27:50;;;;;;;15.40;13.85;;;;;;;;;;6283062;28;20118;-84
2021/06/18 05:30:52;;;;;;;17.05;14.65;;;;;;;;;;6295585;28;20051;-84
2021/06/18 05:33:59;;;;;;;15.40;13.70;;;;;;;;;;6295361;28;20422;-83
2021/06/18 05:37:01;;;;;;;16.85;15.18;;;;;;;;;;6270416;28;20118;-83
2021/06/18 05:40:04;;;;;;;16.60;14.90;;;;;;;;;;6274368;28;20052;-83
2021/06/18 05:43:05;;;;;;;17.02;15.23;;;;;;;;;;6294810;28;20125;-84
2021/06/18 05:46:07;;;;;;;17.08;15.25;;;;;;;;;;6277698;28;20565;-83
2021/06/18 05:49:08;;;;;;;17.10;14.20;;;;;;;;;;6276193;28;20049;-83
2021/06/18 05:52:10;;;;;;;15.95;14.35;;;;;;;;;;6294312;28;20040;-83
2021/06/18 05:55:12;;;;;;;16.88;14.43;;;;;;;;;;6276153;28;20101;-83
2021/06/18 05:58:14;;;;;;;16.48;14.75;;;;;;;;;;6294933;28;20072;-84
2021/06/18 06:01:15;;;;;;;18.13;14.63;;;;;;;;;;6259308;28;20128;-84
2021/06/18 06:04:31;;;;;;;17.15;15.30;;;;;;;;;;6282124;28;20045;-84
2021/06/18 06:07:33;;;;;;;18.38;15.88;;;;;;;;;;6235240;28;20131;-84
2021/06/18 06:10:35;;;;;;;18.42;16.52;;;;;;;;;;6268324;28;20557;-84
2021/06/18 06:13:36;;;;;;;20.98;17.05;;;;;;;;;;6268135;28;20489;-85
2021/06/18 06:16:38;;;;;;;24.63;17.83;;;;;;;;;;6267673;28;20037;-84
2021/06/18 06:19:39;;;;;;;17.30;15.40;;;;;;;;;;6255909;28;20693;-84
2021/06/18 06:22:41;;;;;;;17.75;14.60;;;;;;;;;;6272088;28;20051;-84
2021/06/18 06:25:43;;;;;;;19.25;16.30;;;;;;;;;;6270335;28;20091;-83
2021/06/18 06:28:45;;;;;;;15.27;13.68;;;;;;;;;;6296958;28;20505;-83
2021/06/18 06:31:46;;;;;;;17.77;15.93;;;;;;;;;;6314542;28;20493;-83
2021/06/18 06:34:48;;;;;;;14.98;13.57;;;;;;;;;;6296559;28;20055;-84
2021/06/18 06:37:54;;;;;;;15.67;14.07;;;;;;;;;;6314596;28;20051;-83
2021/06/18 06:40:56;;;;;;;14.68;13.23;;;;;;;;;;6284956;28;20115;-82
2021/06/18 06:43:58;;;;;;;14.23;12.80;;;;;;;;;;6288415;28;20040;-83
2021/06/18 06:46:59;;;;;;;14.47;12.93;;;;;;;;;;6291140;28;20526;-83
2021/06/18 06:50:01;;;;;;;14.32;12.80;;;;;;;;;;6293176;28;20315;-83
2021/06/18 06:53:03;;;;;;;14.43;12.52;;;;;;;;;;6287243;28;20448;-83
2021/06/18 06:56:04;;;;;;;12.63;11.35;;;;;;;;;;6267299;28;20040;-82
2021/06/18 06:59:06;;;;;;;16.60;12.07;;;;;;;;;;6298820;28;20136;-82
2021/06/18 07:02:08;;;;;;;14.10;12.60;;;;;;;;;;6291684;28;20047;-83
2021/06/18 07:05:10;;;;;;;17.40;11.85;;;;;;;;;;6273606;28;20048;-83
2021/06/18 07:08:16;;;;;;;13.05;11.77;;;;;;;;;;6283502;28;20047;-83
2021/06/18 07:11:18;;;;;;;12.88;10.98;;;;;;;;;;6269767;28;20182;-83
2021/06/18 07:14:19;;;;;;;11.83;10.70;;;;;;;;;;6289850;28;20036;-82
2021/06/18 07:17:24;;;;;;;14.05;10.60;;;;;;;;;;6295951;28;20045;-82
2021/06/18 07:20:26;;;;;;;12.10;10.32;;;;;;;;;;6297075;28;20049;-83
2021/06/18 07:23:28;;;;;;;10.40;9.40;;;;;;;;;;6295444;28;20448;-83
2021/06/18 07:26:29;;;;;;;8.90;8.10;;;;;;;;;;6293088;28;20123;-82
2021/06/18 07:29:31;;;;;;;10.43;9.53;;;;;;;;;;6288634;28;20082;-82
2021/06/18 07:32:32;;;;;;;10.83;9.70;;;;;;;;;;6271681;28;20044;-82
2021/06/18 07:35:35;;;;;;;10.97;9.97;;;;;;;;;;6286747;28;20037;-83
2021/06/18 07:38:37;;;;;;;11.00;9.90;;;;;;;;;;6288047;28;20541;-82
2021/06/18 07:41:39;;;;;;;11.30;10.13;;;;;;;;;;6292315;28;20067;-84
2021/06/18 07:44:41;;;;;;;11.57;10.23;;;;;;;;;;6290606;28;20102;-82
2021/06/18 07:47:43;;;;;;;13.60;10.90;;;;;;;;;;6272632;28;20122;-82
2021/06/18 07:50:45;;;;;;;10.80;9.70;;;;;;;;;;6275155;28;20036;-82
2021/06/18 07:53:46;;;;;;;12.27;9.68;;;;;;;;;;6293252;28;20134;-82
2021/06/18 07:56:48;;;;;;;11.60;10.00;;;;;;;;;;6295515;28;20468;-81
2021/06/18 07:59:50;;;;;;;12.50;10.17;;;;;;;;;;6276560;28;20265;-82
2021/06/18 08:02:51;;;;;;;11.23;10.17;;;;;;;;;;6282540;28;20052;-82
2021/06/18 08:05:53;;;;;;;13.97;10.90;;;;;;;;;;6319977;28;20527;-80
2021/06/18 08:08:54;;;;;;;11.70;10.40;;;;;;;;;;6301240;28;20047;-84
2021/06/18 08:11:56;;;;;;;15.37;10.87;;;;;;;;;;6298143;28;20149;-81
2021/06/18 08:14:58;;;;;;;13.90;10.25;;;;;;;;;;6261646;28;20048;-82
2021/06/18 08:17:59;;;;;;;15.40;11.20;;;;;;;;;;6293305;28;20055;-83
2021/06/18 08:21:03;;;;;;;19.80;11.15;;;;;;;;;;6291128;28;20137;-83
2021/06/18 08:24:05;;;;;;;16.23;10.07;;;;;;;;;;6292588;28;20041;-82
2021/06/18 08:27:07;;;;;;;16.20;9.85;;;;;;;;;;6255619;28;20123;-82
2021/06/18 08:30:09;;;;;;;10.57;9.48;;;;;;;;;;6295874;28;20041;-83
2021/06/18 08:33:23;;;;;;;15.60;9.88;;;;;;;;;;6272542;28;20194;-84
2021/06/18 08:36:24;;;;;;;14.32;9.23;;;;;;;;;;6285402;28;20047;-83
2021/06/18 08:39:29;;;;;;;11.30;9.38;;;;;;;;;;6272261;28;20040;-82
2021/06/18 08:42:33;;;;;;;12.88;9.85;;;;;;;;;;6285741;28;20063;-82
2021/06/18 08:45:35;;;;;;;11.23;8.75;;;;;;;;;;6302201;28;20040;-82
2021/06/18 08:48:37;;;;;;;9.45;8.45;;;;;;;;;;6270452;28;20175;-82
2021/06/18 08:51:39;;;;;;;12.07;8.52;;;;;;;;;;6291294;28;20051;-80
2021/06/18 08:54:42;;;;;;;12.10;9.13;;;;;;;;;;6287981;28;20064;-84
2021/06/18 08:57:47;;;;;;;9.52;8.48;;;;;;;;;;6269326;28;20104;-82
2021/06/18 09:00:51;;;;;;;9.73;8.60;;;;;;;;;;6265483;28;20039;-83
2021/06/18 09:03:55;;;;;;;11.32;9.05;;;;;;;;;;6265144;28;20045;-84
2021/06/18 09:06:58;;;;;;;9.60;8.70;;;;;;;;;;6263441;28;20052;-82
2021/06/18 09:10:24;;;;;;;9.32;8.27;;;;;;;;;;6267262;28;20045;-82
2021/06/18 09:13:33;;;;;;;10.45;8.70;;;;;;;;;;6290353;28;20070;-82
2021/06/18 09:16:35;;;;;;;10.88;8.35;;;;;;;;;;6289147;28;20135;-84
2021/06/18 09:19:43;;;;;;;10.10;9.10;;;;;;;;;;6253297;28;20061;-82
2021/06/18 09:22:45;;;;;;;10.32;7.97;;;;;;;;;;6239195;28;20057;-83
2021/06/18 09:25:47;;;;;;;9.27;7.60;;;;;;;;;;6258050;28;20128;-82
2021/06/18 09:28:59;;;;;;;7.75;7.03;;;;;;;;;;6281669;28;20052;-85
2021/06/18 09:32:05;;;;;;;7.60;6.78;;;;;;;;;;6272524;28;20049;-85
2021/06/18 09:35:07;;;;;;;8.63;7.50;;;;;;;;;;6276763;28;20033;-85
2021/06/18 09:38:09;;;;;;;8.25;7.20;;;;;;;;;;6266222;28;20087;-85
2021/06/18 09:41:32;;;;;;;8.40;7.68;;;;;;;;;;6281750;28;20143;-84
2021/06/18 09:44:34;;;;;;;8.68;7.78;;;;;;;;;;6267154;28;20045;-85
2021/06/18 09:47:37;;;;;;;9.10;7.13;;;;;;;;;;6269670;28;20108;-86
2021/06/18 09:50:41;;;;;;;7.82;6.70;;;;;;;;;;6253878;28;20037;-83
2021/06/18 09:53:42;;;;;;;8.77;7.05;;;;;;;;;;6244879;28;20129;-83
2021/06/18 09:56:44;;;;;;;14.82;7.03;;;;;;;;;;6244823;28;20097;-85
2021/06/18 09:59:56;;;;;;;10.40;6.75;;;;;;;;;;6257615;28;20037;-83
2021/06/18 10:02:59;;;;;;;7.75;6.70;;;;;;;;;;6244069;28;20049;-83
2021/06/18 10:06:02;;;;;;;9.50;7.03;;;;;;;;;;6269742;28;20049;-83
2021/06/18 10:09:06;;;;;;;11.80;7.05;;;;;;;;;;6270720;28;20041;-83
2021/06/18 10:12:08;;;;;;;11.05;6.55;;;;;;;;;;6261620;28;20113;-82
2021/06/18 10:15:12;;;;;;;9.40;6.85;;;;;;;;;;6270694;28;20055;-84
2021/06/18 10:18:14;;;;;;;8.82;6.63;;;;;;;;;;6276154;28;20040;-84
2021/06/18 10:21:21;;;;;;;8.85;6.72;;;;;;;;;;6290834;28;20391;-85
2021/06/18 10:24:31;;;;;;;7.55;6.32;;;;;;;;;;6289572;28;20036;-83
2021/06/18 10:27:47;;;;;;;8.63;6.53;;;;;;;;;;6291656;28;20045;-84
2021/06/18 10:30:54;;;;;;;8.15;6.32;;;;;;;;;;6290767;28;20121;-83
2021/06/18 10:34:16;;;;;;;6.68;5.28;;;;;;;;;;6281689;28;20105;-84
2021/06/18 10:37:20;;;;;;;6.20;5.60;;;;;;;;;;6282879;28;20102;-83
2021/06/18 10:40:22;;;;;;;9.45;5.95;;;;;;;;;;6267145;28;20045;-83
2021/06/18 10:43:37;;;;;;;6.70;6.03;;;;;;;;;;6268167;28;20049;-83
2021/06/18 10:46:42;;;;;;;6.65;6.05;;;;;;;;;;6267862;28;20044;-82
2021/06/18 10:49:44;;;;;;;6.82;5.88;;;;;;;;;;6264323;28;20049;-85
2021/06/18 10:52:48;;;;;;;6.53;5.70;;;;;;;;;;6264453;28;20520;-86
2021/06/18 10:55:53;;;;;;;7.65;6.05;;;;;;;;;;6287767;28;20040;-86
2021/06/18 10:59:05;;;;;;;6.28;5.50;;;;;;;;;;6268322;28;20123;-86
2021/06/18 11:02:22;;;;;;;7.35;5.85;;;;;;;;;;6270965;28;20125;-82
2021/06/18 11:05:35;;;;;;;7.05;6.10;;;;;;;;;;6247268;28;20414;-85
2021/06/18 11:08:45;;;;;;;7.68;6.40;;;;;;;;;;6262821;28;20498;-84
2021/06/18 11:11:47;;;;;;;6.80;6.28;;;;;;;;;;6300249;28;20118;-83
2021/06/18 11:14:51;;;;;;;;;;;;;;;;;;6318580;28;20040;-84
2021/06/18 11:18:16;;;;;;;7.18;5.47;;;;;;;;;;6318253;28;20026;-83
2021/06/18 11:21:23;;;;;;;7.05;5.72;;;;;;;;;;6274938;28;20410;-83
2021/06/18 11:24:39;;;;;;;7.97;5.88;;;;;;;;;;6292761;28;20086;-85
2021/06/18 11:27:41;;;;;;;6.55;6.05;;;;;;;;;;6268836;28;20119;-83
2021/06/18 11:30:57;;;;;;;;;;;;;;;;;;6269023;28;20067;-85
2021/06/18 11:33:59;;;;;;;8.88;6.00;;;;;;;;;;6281121;28;20370;-85
2021/06/18 11:37:01;;;;;;;7.65;6.40;;;;;;;;;;6265019;28;20052;-85
2021/06/18 11:40:08;;;;;;;8.13;7.18;;;;;;;;;;6271638;28;20391;-86
2021/06/18 11:43:10;;;;;;;8.40;7.10;;;;;;;;;;6299087;28;20197;-86
2021/06/18 11:46:12;;;;;;;9.43;6.82;;;;;;;;;;6294050;28;20055;-85
2021/06/18 11:49:18;;;;;;;7.97;7.18;;;;;;;;;;6303609;28;20120;-82
2021/06/18 11:52:20;;;;;;;12.73;6.05;;;;;;;;;;6301119;28;20526;-82
2021/06/18 11:55:27;;;;;;;;;;;;;;;;;;6317905;28;20040;-82
2021/06/18 11:58:29;;;;;;;7.80;5.95;;;;;;;;;;6301025;28;20085;-83
2021/06/18 12:01:31;;;;;;;6.88;5.30;;;;;;;;;;6319108;28;20056;-83
2021/06/18 12:04:33;;;;;;;9.73;6.30;;;;;;;;;;6314044;28;20171;-83
2021/06/18 12:07:36;;;;;;;7.30;6.47;;;;;;;;;;6275809;28;20040;-83
2021/06/18 12:10:37;;;;;;;6.88;6.15;;;;;;;;;;6291588;28;20573;-82
2021/06/18 12:13:49;;;;;;;9.60;6.30;;;;;;;;;;6294532;28;20562;-84
2021/06/18 12:16:52;;;;;;;8.50;6.25;;;;;;;;;;6294451;28;20557;-85
2021/06/18 12:19:54;;;;;;;7.38;6.13;;;;;;;;;;6293094;28;20044;-82
2021/06/18 12:22:56;;;;;;;7.65;6.32;;;;;;;;;;6274997;28;20045;-83
2021/06/18 12:25:58;;;;;;;7.93;6.82;;;;;;;;;;6290349;28;20048;-83
2021/06/18 12:29:01;;;;;;;7.95;6.78;;;;;;;;;;6275643;28;20395;-85
2021/06/18 12:32:03;;;;;;;8.45;6.93;;;;;;;;;;6296688;28;20074;-85
2021/06/18 12:35:09;;;;;;;7.78;7.03;;;;;;;;;;6273624;28;20032;-85
2021/06/18 12:38:13;;;;;;;8.30;7.50;;;;;;;;;;6291835;28;20536;-87
2021/06/18 12:41:25;;;;;;;7.97;7.00;;;;;;;;;;6276906;28;20045;-84
2021/06/18 12:44:28;;;;;;;;;;;;;;;;;;6291939;28;20043;-84
2021/06/18 12:47:30;;;;;;;9.10;7.10;;;;;;;;;;6277278;28;19927;-84
2021/06/18 12:50:40;;;;;;;8.02;7.10;;;;;;;;;;6276675;28;20047;-85
2021/06/18 12:53:42;;;;;;;9.82;7.13;;;;;;;;;;6303242;28;20044;-83
2021/06/18 12:56:45;;;;;;;15.52;8.15;;;;;;;;;;6271295;28;20197;-83
2021/06/18 12:59:47;;;;;;;10.65;7.97;;;;;;;;;;6269991;28;20040;-82
2021/06/18 13:02:55;;;;;;;11.47;8.73;;;;;;;;;;6295536;28;20047;-84
2021/06/18 13:05:58;;;;;;;13.52;9.80;;;;;;;;;;6293402;28;20044;-83
2021/06/18 13:08:59;;;;;;;12.70;9.98;;;;;;;;;;6269071;28;20402;-86
2021/06/18 13:12:03;;;;;;;12.05;10.55;;;;;;;;;;6295963;28;20040;-85
2021/06/18 13:15:07;;;;;;;14.35;10.02;;;;;;;;;;6292488;28;20036;-85
2021/06/18 13:18:09;;;;;;;13.55;9.80;;;;;;;;;;6275553;28;20032;-84
2021/06/18 13:21:12;;;;;;;17.02;10.50;;;;;;;;;;6275590;28;20055;-84
2021/06/18 13:24:15;;;;;;;13.63;10.05;;;;;;;;;;6275876;28;20051;-82
2021/06/18 13:27:17;;;;;;;15.65;10.57;;;;;;;;;;6275241;28;20513;-84
2021/06/18 13:30:20;;;;;;;12.57;10.98;;;;;;;;;;6298883;28;20050;-84
2021/06/18 13:33:22;;;;;;;17.35;10.25;;;;;;;;;;6268999;28;20171;-85
2021/06/18 13:36:29;;;;;;;17.05;10.15;;;;;;;;;;6269616;28;20041;-83
2021/06/18 13:39:34;;;;;;;12.77;9.93;;;;;;;;;;6266952;28;20720;-83
2021/06/18 13:42:37;;;;;;;13.93;9.75;;;;;;;;;;6311778;28;20041;-84
2021/06/18 13:45:38;;;;;;;13.13;9.85;;;;;;;;;;6294785;28;20041;-83
2021/06/18 13:48:40;;;;;;;16.00;10.13;;;;;;;;;;6282918;28;20410;-85
2021/06/18 13:51:43;;;;;;;14.97;8.90;;;;;;;;;;6269824;28;20850;-83
2021/06/18 13:54:44;;;;;;;13.55;9.40;;;;;;;;;;6238742;28;20121;-85
2021/06/18 13:58:06;;;;;;;11.70;8.73;;;;;;;;;;6259909;28;20455;-84
2021/06/18 14:01:08;;;;;;;;;;;;;;;;;;6286161;28;20041;-84
2021/06/18 14:04:10;;;;;;;17.48;9.10;;;;;;;;;;6263089;28;19927;-83
2021/06/18 14:07:16;;;;;;;13.10;8.98;;;;;;;;;;6260051;28;20180;-83
2021/06/18 14:10:18;;;;;;;10.40;8.45;;;;;;;;;;6285745;28;20172;-84
2021/06/18 14:13:20;;;;;;;18.45;11.07;;;;;;;;;;6266121;28;20560;-84
2021/06/18 14:16:22;;;;;;;15.88;9.60;;;;;;;;;;6226816;28;20115;-83
2021/06/18 14:19:24;;;;;;;15.73;9.10;;;;;;;;;;6259308;28;20040;-85
2021/06/18 14:22:26;;;;;;;16.55;8.77;;;;;;;;;;6262476;28;20410;-87
2021/06/18 14:25:30;;;;;;;14.95;8.23;;;;;;;;;;6274855;28;20120;-87
2021/06/18 14:28:32;;;;;;;13.73;8.88;;;;;;;;;;6262880;28;20041;-86
2021/06/18 14:31:33;;;;;;;13.95;7.55;;;;;;;;;;6295256;28;20053;-87
2021/06/18 14:34:36;;;;;;;15.68;8.50;;;;;;;;;;6278076;28;20070;-85
2021/06/18 14:37:41;;;;;;;12.23;7.95;;;;;;;;;;6287469;28;20115;-86
2021/06/18 14:40:46;;;;;;;14.35;8.70;;;;;;;;;;6251961;28;20499;-86
2021/06/18 14:43:47;;;;;;;13.10;8.65;;;;;;;;;;6222469;28;20547;-86
2021/06/18 14:46:49;;;;;;;13.13;11.77;;;;;;;;;;6233131;28;20037;-86
2021/06/18 14:49:51;;;;;;;13.27;8.70;;;;;;;;;;6272750;28;20135;-85
2021/06/18 14:52:53;;;;;;;11.63;7.97;;;;;;;;;;6261371;28;20174;-86
2021/06/18 14:55:54;;;;;;;14.65;8.63;;;;;;;;;;6260843;28;20110;-87
2021/06/18 14:58:56;;;;;;;14.57;7.90;;;;;;;;;;6263149;28;20101;-87
2021/06/18 15:01:58;;;;;;;17.10;8.07;;;;;;;;;;6262571;28;20052;-85
2021/06/18 15:05:00;;;;;;;14.48;8.40;;;;;;;;;;6271944;28;20048;-85
2021/06/18 15:08:02;;;;;;;12.43;7.50;;;;;;;;;;6294674;28;20105;-85
2021/06/18 15:11:03;;;;;;;13.90;8.65;;;;;;;;;;6310313;28;20044;-85
2021/06/18 15:14:05;;;;;;;;;;;;;;;;;;6288666;28;20037;-87
2021/06/18 15:17:07;;;;;;;14.88;8.30;;;;;;;;;;6286062;28;20053;-84
2021/06/18 15:20:09;;;;;;;;;;;;;;;;;;6269366;28;20050;-86
2021/06/18 15:23:12;;;;;;;13.77;8.07;;;;;;;;;;6271066;28;19921;-84
2021/06/18 15:26:14;;;;;;;14.18;9.73;;;;;;;;;;6290958;28;20050;-87
2021/06/18 15:29:15;;;;;;;;;;;;;;;;;;6291839;28;20385;-84
2021/06/18 15:32:17;;;;;;;12.45;8.05;;;;;;;;;;6291951;28;19956;-87
2021/06/18 15:35:19;;;;;;;;;;;;;;;;;;6275072;28;20098;-87
2021/06/18 15:38:20;;;;;;;12.07;8.73;;;;;;;;;;6267259;28;19927;-87
2021/06/18 15:41:22;;;;;;;;;;;;;;;;;;6281632;28;20055;-87
2021/06/18 15:44:23;;;;;;;11.63;7.97;;;;;;;;;;6277477;28;20344;-87
2021/06/18 15:47:26;;;;;;;14.18;8.18;;;;;;;;;;6258830;28;20115;-87
2021/06/18 15:50:27;;;;;;;10.70;7.28;;;;;;;;;;6279031;28;20035;-86
2021/06/18 15:53:29;;;;;;;;;;;;;;;;;;6247952;28;20041;-86
2021/06/18 15:56:30;;;;;;;11.80;7.82;;;;;;;;;;6258186;28;19932;-85
2021/06/18 15:59:32;;;;;;;12.98;7.57;;;;;;;;;;6265634;28;20041;-86
2021/06/18 16:02:34;;;;;;;;;;;;;;;;;;6279788;28;20126;-87
2021/06/18 16:05:36;;;;;;;12.93;8.25;;;;;;;;;;6288006;28;20379;-85
2021/06/18 16:08:41;;;;;;;14.55;9.02;;;;;;;;;;6285646;28;20135;-85
2021/06/18 16:11:43;;;;;;;;;;;;;;;;;;6265034;28;20044;-87
2021/06/18 16:14:44;;;;;;;11.63;7.65;;;;;;;;;;6280316;28;20081;-86
2021/06/18 16:17:46;;;;;;;12.60;7.85;;;;;;;;;;6259486;28;20180;-85
2021/06/18 16:20:48;;;;;;;;;;;;;;;;;;6238736;28;20107;-86
2021/06/18 16:23:49;;;;;;;12.60;8.77;;;;;;;;;;6284994;28;20029;-86
2021/06/18 16:26:51;;;;;;;14.27;8.77;;;;;;;;;;6279029;28;20059;-87
2021/06/18 16:29:53;;;;;;;14.20;8.90;;;;;;;;;;6269931;28;20053;-85
2021/06/18 16:32:56;;;;;;;10.77;8.65;;;;;;;;;;6266214;28;20052;-86
2021/06/18 16:35:59;;;;;;;11.88;8.20;;;;;;;;;;6274612;28;20051;-85
2021/06/18 16:39:01;;;;;;;14.27;9.18;;;;;;;;;;6246397;28;20052;-85
2021/06/18 16:42:03;;;;;;;;;;;;;;;;;;6287619;28;20132;-85
2021/06/18 16:45:06;;;;;;;9.88;8.23;;;;;;;;;;6267616;28;20013;-86
2021/06/18 16:48:08;;;;;;;9.63;8.18;;;;;;;;;;6278006;28;20045;-86
2021/06/18 16:51:10;;;;;;;10.43;8.10;;;;;;;;;;6294847;28;20040;-86
2021/06/18 16:54:11;;;;;;;10.23;8.00;;;;;;;;;;6292290;28;20047;-84
2021/06/18 16:57:14;;;;;;;11.15;8.40;;;;;;;;;;6288453;28;20048;-87
2021/06/18 17:00:16;;;;;;;10.85;7.93;;;;;;;;;;6296380;28;20044;-85
2021/06/18 17:03:19;;;;;;;11.23;8.90;;;;;;;;;;6287829;28;20405;-85
2021/06/18 17:06:21;;;;;;;13.35;9.20;;;;;;;;;;6305505;28;20047;-85
2021/06/18 17:09:28;;;;;;;10.30;8.93;;;;;;;;;;6324393;28;20044;-84
2021/06/18 17:12:35;;;;;;;9.82;8.80;;;;;;;;;;6322360;28;20081;-86
2021/06/18 17:15:41;;;;;;;13.05;8.90;;;;;;;;;;6304806;28;20493;-85
2021/06/18 17:18:43;;;;;;;10.35;8.88;;;;;;;;;;6298847;28;20492;-85
2021/06/18 17:21:46;;;;;;;10.68;8.95;;;;;;;;;;6270844;28;20218;-84
2021/06/18 17:24:48;;;;;;;13.13;9.00;;;;;;;;;;6270352;28;20040;-83
2021/06/18 17:27:49;;;;;;;11.60;8.57;;;;;;;;;;6279764;28;20105;-87
2021/06/18 17:30:51;;;;;;;9.80;8.80;;;;;;;;;;6281473;28;20040;-86
2021/06/18 17:33:54;;;;;;;12.02;8.40;;;;;;;;;;6299823;28;20070;-87
2021/06/18 17:36:56;;;;;;;12.63;9.00;;;;;;;;;;6315644;28;20119;-86
2021/06/18 17:39:57;;;;;;;10.05;8.60;;;;;;;;;;6302399;28;20127;-87
2021/06/18 17:43:00;;;;;;;10.40;8.35;;;;;;;;;;6325498;28;20088;-86
2021/06/18 17:46:02;;;;;;;11.40;8.93;;;;;;;;;;6297886;28;20048;-87
2021/06/18 17:49:05;;;;;;;10.05;9.05;;;;;;;;;;6256065;28;20048;-87
2021/06/18 17:52:07;;;;;;;10.70;8.68;;;;;;;;;;6274501;28;20115;-86
2021/06/18 17:55:09;;;;;;;11.13;9.48;;;;;;;;;;6280845;28;20123;-86
2021/06/18 17:58:11;;;;;;;;;;;;;;;;;;6281965;28;20119;-87
2021/06/18 18:01:12;;;;;;;11.10;9.43;;;;;;;;;;6277210;28;19952;-88
2021/06/18 18:04:14;;;;;;;9.85;8.90;;;;;;;;;;6254482;28;20554;-86
2021/06/18 18:07:16;;;;;;;11.15;9.32;;;;;;;;;;6255652;28;20041;-86